createdAt,value
2023-04-08T00:01:11.194Z,41.27
2023-04-08T00:03:38.583Z,48.40
2023-04-08T00:06:05.671Z,47.60
2023-04-08T00:08:32.794Z,43.47
2023-04-08T00:10:59.954Z,44.10
2023-04-08T00:13:27.006Z,51.60
2023-04-08T00:15:55.472Z,47.77
2023-04-08T00:18:22.554Z,51.50
2023-04-08T00:20:49.641Z,54.40
2023-04-08T00:23:16.678Z,50.83
2023-04-08T00:25:43.854Z,46.47
2023-04-08T00:28:10.971Z,49.07
2023-04-08T00:30:38.082Z,53.87
2023-04-08T00:33:06.536Z,49.20
2023-04-08T00:35:33.767Z,42.60
2023-04-08T00:38:01.018Z,54.40
2023-04-08T00:40:28.130Z,53.33
2023-04-08T00:42:57.291Z,46.00
2023-04-08T00:45:24.410Z,47.53
2023-04-08T00:47:51.478Z,53.13
2023-04-08T00:50:20.012Z,47.53
2023-04-08T00:52:47.126Z,51.50
2023-04-08T00:55:14.168Z,62.50
2023-04-08T00:57:41.642Z,49.60
2023-04-08T01:00:09.329Z,46.10
2023-04-08T01:02:39.996Z,47.67
2023-04-08T01:05:08.459Z,43.00
2023-04-08T01:07:37.677Z,47.37
2023-04-08T01:10:07.027Z,47.10
2023-04-08T01:12:37.818Z,48.70
2023-04-08T01:15:05.919Z,46.43
2023-04-08T01:17:33.737Z,50.93
2023-04-08T01:20:01.831Z,54.87
2023-04-08T01:22:33.561Z,54.87
2023-04-08T01:25:05.595Z,62.10
2023-04-08T01:27:34.366Z,59.40
2023-04-08T01:30:02.452Z,59.10
2023-04-08T01:32:31.936Z,59.20
2023-04-08T01:34:59.703Z,54.63
2023-04-08T01:37:29.927Z,64.37
2023-04-08T01:39:57.822Z,73.87
2023-04-08T01:42:25.439Z,78.00
2023-04-08T01:44:56.071Z,90.77
2023-04-08T01:47:23.523Z,96.73
2023-04-08T01:49:50.965Z,94.70
2023-04-08T01:52:19.002Z,96.33
2023-04-08T01:54:46.253Z,88.77
2023-04-08T01:57:15.970Z,95.03
2023-04-08T01:59:43.305Z,88.17
2023-04-08T02:02:12.804Z,99.87
2023-04-08T02:04:40.172Z,97.17
2023-04-08T02:07:07.445Z,94.83
2023-04-08T02:09:34.750Z,107.23
2023-04-08T02:12:01.803Z,124.83
2023-04-08T02:14:29.094Z,108.17
2023-04-08T02:17:00.858Z,110.53
2023-04-08T02:19:30.441Z,98.23
2023-04-08T02:21:58.536Z,101.10
2023-04-08T02:24:26.602Z,110.40
2023-04-08T02:26:55.533Z,103.17
2023-04-08T02:29:25.177Z,114.27
2023-04-08T02:31:54.673Z,108.13
2023-04-08T02:34:22.934Z,119.90
2023-04-08T02:36:51.644Z,123.40
2023-04-08T02:39:18.762Z,111.43
2023-04-08T02:41:48.787Z,135.20
2023-04-08T02:44:15.861Z,118.97
2023-04-08T02:46:42.908Z,121.10
2023-04-08T02:49:09.956Z,127.73
2023-04-08T02:51:37.085Z,129.93
2023-04-08T02:54:05.563Z,119.53
2023-04-08T02:56:32.897Z,116.23
2023-04-08T02:58:59.958Z,120.03
2023-04-08T03:01:27.056Z,112.93
2023-04-08T03:03:54.325Z,134.20
2023-04-08T03:06:21.454Z,129.87
2023-04-08T03:08:48.740Z,112.70
2023-04-08T03:11:17.388Z,119.37
2023-04-08T03:13:44.494Z,118.60
2023-04-08T03:16:11.590Z,128.07
2023-04-08T03:18:38.874Z,114.03
2023-04-08T03:21:05.942Z,125.60
2023-04-08T03:23:32.966Z,121.77
2023-04-08T03:25:59.979Z,124.00
2023-04-08T03:28:28.336Z,131.50
2023-04-08T03:30:55.566Z,128.70
2023-04-08T03:33:22.624Z,130.23
2023-04-08T03:35:49.650Z,148.57
2023-04-08T03:38:16.697Z,127.53
2023-04-08T03:40:43.762Z,132.80
2023-04-08T03:43:10.832Z,140.20
2023-04-08T03:45:39.392Z,140.43
2023-04-08T03:48:06.923Z,134.83
2023-04-08T03:50:34.034Z,122.53
2023-04-08T03:53:01.109Z,122.17
2023-04-08T03:55:28.181Z,150.93
2023-04-08T03:57:55.255Z,147.67
2023-04-08T04:00:22.403Z,134.00
2023-04-08T04:02:50.889Z,137.77
2023-04-08T04:05:18.152Z,146.07
2023-04-08T04:07:45.213Z,150.73
2023-04-08T04:10:12.289Z,151.80
2023-04-08T04:12:39.370Z,155.23
2023-04-08T04:15:07.030Z,149.27
2023-04-08T04:17:34.158Z,175.30
2023-04-08T04:20:03.998Z,164.03
2023-04-08T04:22:31.093Z,155.37
2023-04-08T04:24:58.136Z,143.33
2023-04-08T04:27:25.244Z,157.50
2023-04-08T04:29:52.352Z,166.50
2023-04-08T04:32:19.456Z,147.40
2023-04-08T04:34:46.608Z,173.63
2023-04-08T04:37:14.949Z,164.23
2023-04-08T04:39:41.967Z,156.27
2023-04-08T04:42:09.032Z,171.00
2023-04-08T04:44:36.080Z,160.23
2023-04-08T04:47:03.129Z,168.53
2023-04-08T04:49:30.288Z,142.30
2023-04-08T04:51:57.326Z,137.20
2023-04-08T04:54:25.691Z,165.13
2023-04-08T04:56:52.783Z,139.47
2023-04-08T04:59:19.857Z,159.73
2023-04-08T05:01:47.042Z,126.80
2023-04-08T05:04:14.241Z,125.93
2023-04-08T05:06:41.312Z,106.33
2023-04-08T05:09:08.343Z,113.83
2023-04-08T05:11:36.801Z,105.83
2023-04-08T05:14:03.874Z,95.90
2023-04-08T05:16:30.996Z,96.33
2023-04-08T05:18:58.060Z,103.67
2023-04-08T05:21:25.145Z,98.60
2023-04-08T05:23:52.251Z,108.47
2023-04-08T05:26:20.359Z,110.00
2023-04-08T05:28:49.170Z,119.93
2023-04-08T05:31:16.581Z,117.10
2023-04-08T05:33:43.701Z,107.07
2023-04-08T05:36:11.204Z,105.40
2023-04-08T05:38:38.508Z,112.20
2023-04-08T05:41:05.655Z,106.27
2023-04-08T05:43:33.349Z,95.47
2023-04-08T05:46:01.807Z,103.27
2023-04-08T05:48:28.845Z,109.10
2023-04-08T05:50:55.893Z,107.83
2023-04-08T05:53:23.021Z,110.53
2023-04-08T05:55:50.051Z,106.97
2023-04-08T05:58:17.071Z,98.30
2023-04-08T06:00:44.092Z,92.03
2023-04-08T06:03:12.920Z,116.37
2023-04-08T06:05:40.235Z,99.37
2023-04-08T06:08:07.308Z,115.57
2023-04-08T06:10:34.318Z,108.93
2023-04-08T06:13:01.418Z,113.77
2023-04-08T06:15:28.475Z,110.97
2023-04-08T06:17:55.644Z,101.73
2023-04-08T06:20:24.107Z,105.63
2023-04-08T06:22:51.182Z,97.27
2023-04-08T06:25:18.337Z,95.10
2023-04-08T06:27:45.380Z,106.30
2023-04-08T06:30:12.690Z,86.60
2023-04-08T06:32:39.845Z,91.40
2023-04-08T06:35:07.608Z,88.33
2023-04-08T06:37:36.018Z,81.43
2023-04-08T06:40:03.090Z,76.37
2023-04-08T06:42:30.143Z,75.83
2023-04-08T06:45:15.152Z,72.63
2023-04-08T06:47:42.311Z,76.50
2023-04-08T06:50:09.818Z,74.57
2023-04-08T06:52:38.178Z,71.10
2023-04-08T06:55:05.713Z,63.03
2023-04-08T06:57:32.790Z,69.30
2023-04-08T06:59:59.837Z,66.00
2023-04-08T07:02:26.921Z,61.87
2023-04-08T07:04:54.018Z,61.10
2023-04-08T07:07:21.058Z,58.47
2023-04-08T07:09:49.406Z,54.60
2023-04-08T07:12:16.474Z,62.37
2023-04-08T07:14:43.514Z,57.63
2023-04-08T07:17:10.678Z,62.10
2023-04-08T07:19:37.841Z,61.60
2023-04-08T07:22:04.950Z,57.17
2023-04-08T07:24:32.021Z,72.00
2023-04-08T07:27:00.424Z,59.80
2023-04-08T07:29:27.452Z,70.73
2023-04-08T07:31:54.500Z,70.43
2023-04-08T07:34:21.594Z,69.40
2023-04-08T07:36:48.736Z,97.23
2023-04-08T07:39:15.799Z,79.30
2023-04-08T07:41:42.899Z,79.30
2023-04-08T07:44:11.269Z,106.73
2023-04-08T07:46:38.679Z,99.50
2023-04-08T07:49:05.779Z,110.37
2023-04-08T07:51:32.843Z,116.40
2023-04-08T07:54:00.430Z,104.87
2023-04-08T07:56:27.509Z,107.63
2023-04-08T07:58:54.940Z,126.67
2023-04-08T08:01:23.919Z,136.10
2023-04-08T08:03:51.590Z,115.97
2023-04-08T08:06:19.350Z,125.00
2023-04-08T08:08:46.507Z,122.07
2023-04-08T08:11:13.656Z,111.53
2023-04-08T08:13:40.702Z,122.07
2023-04-08T08:16:07.884Z,122.27
2023-04-08T08:18:36.388Z,120.00
2023-04-08T08:21:03.600Z,112.20
2023-04-08T08:23:30.678Z,128.50
2023-04-08T08:26:00.056Z,120.23
2023-04-08T08:28:27.132Z,114.23
2023-04-08T08:30:54.219Z,124.50
2023-04-08T08:33:21.398Z,112.03
2023-04-08T08:35:49.842Z,107.50
2023-04-08T08:38:16.976Z,95.57
2023-04-08T08:40:44.033Z,100.60
2023-04-08T08:43:11.098Z,109.37
2023-04-08T08:45:39.816Z,97.93
2023-04-08T08:48:07.184Z,102.57
2023-04-08T08:50:34.373Z,115.27
2023-04-08T08:53:03.250Z,103.20
2023-04-08T08:55:50.807Z,104.83
2023-04-08T08:58:18.708Z,102.10
2023-04-08T09:00:45.758Z,100.30
2023-04-08T09:03:16.286Z,94.60
2023-04-08T09:05:50.248Z,100.73
2023-04-08T09:08:29.058Z,102.50
2023-04-08T09:10:56.517Z,106.33
2023-04-08T09:13:23.807Z,120.83
2023-04-08T09:16:04.163Z,116.77
2023-04-08T09:18:31.514Z,123.10
2023-04-08T09:20:59.909Z,115.00
2023-04-08T09:23:37.932Z,107.77
2023-04-08T09:26:07.791Z,104.63
2023-04-08T09:28:34.799Z,109.53
2023-04-08T09:31:01.910Z,96.03
2023-04-08T09:33:32.080Z,92.43
2023-04-08T09:35:59.200Z,86.60
2023-04-08T09:38:26.279Z,88.53
2023-04-08T09:40:54.861Z,91.40
2023-04-08T09:43:23.720Z,91.13
2023-04-08T09:45:51.107Z,84.80
2023-04-08T09:48:18.854Z,80.77
2023-04-08T09:50:48.122Z,81.97
2023-04-08T09:53:23.133Z,82.20
2023-04-08T09:55:51.684Z,80.93
2023-04-08T09:58:22.608Z,87.30
2023-04-08T10:00:50.669Z,88.50
2023-04-08T10:03:23.971Z,85.83
2023-04-08T10:05:53.120Z,90.87
2023-04-08T10:08:20.507Z,84.80
2023-04-08T10:10:48.024Z,87.33
2023-04-08T10:13:15.482Z,89.70
2023-04-08T10:15:43.861Z,82.20
2023-04-08T10:18:29.612Z,89.90
2023-04-08T10:20:56.639Z,77.90
2023-04-08T10:23:43.675Z,87.80
2023-04-08T10:26:30.397Z,74.30
2023-04-08T10:29:13.601Z,89.97
2023-04-08T10:31:42.198Z,80.73
2023-04-08T10:34:16.275Z,80.30
2023-04-08T10:36:43.339Z,83.70
2023-04-08T10:39:10.358Z,75.53
2023-04-08T10:41:41.974Z,77.17
2023-04-08T10:44:15.954Z,83.03
2023-04-08T10:46:44.392Z,90.87
2023-04-08T10:49:11.441Z,67.00
2023-04-08T10:51:38.877Z,67.83
2023-04-08T10:54:09.350Z,41.40
2023-04-08T10:56:36.656Z,58.90
2023-04-08T10:59:03.964Z,47.67
2023-04-08T11:01:38.699Z,41.13
2023-04-08T11:04:11.733Z,39.87
2023-04-08T11:06:38.847Z,37.20
2023-04-08T11:09:05.895Z,36.67
2023-04-08T11:11:33.018Z,36.70
2023-04-08T11:14:00.206Z,32.23
2023-04-08T11:16:27.539Z,37.53
2023-04-08T11:18:54.675Z,40.83
2023-04-08T11:21:23.803Z,50.13
2023-04-08T11:23:51.297Z,46.37
2023-04-08T11:26:18.737Z,41.83
2023-04-08T11:28:45.890Z,47.90
2023-04-08T11:31:13.432Z,57.60
2023-04-08T11:33:45.177Z,40.33
2023-04-08T11:36:12.954Z,23.50
2023-04-08T11:38:41.408Z,18.37
2023-04-08T11:41:08.737Z,19.47
2023-04-08T11:43:36.010Z,17.57
2023-04-08T11:46:09.109Z,20.07
2023-04-08T11:48:36.253Z,19.90
2023-04-08T11:51:03.774Z,20.13
2023-04-08T11:53:30.957Z,20.40
2023-04-08T11:55:59.371Z,16.40
2023-04-08T11:58:26.398Z,12.67
2023-04-08T12:00:53.427Z,13.20
2023-04-08T12:03:20.545Z,22.27
2023-04-08T12:05:47.644Z,16.10
2023-04-08T12:08:14.697Z,13.77
2023-04-08T12:10:41.752Z,19.20
2023-04-08T12:13:10.136Z,18.40
2023-04-08T12:15:37.169Z,17.57
2023-04-08T12:18:04.398Z,17.73
2023-04-08T12:20:31.493Z,15.03
2023-04-08T12:22:58.633Z,17.83
2023-04-08T12:25:25.679Z,15.60
2023-04-08T12:27:52.760Z,16.73
2023-04-08T12:30:21.246Z,14.33
2023-04-08T12:32:48.391Z,13.27
2023-04-08T12:35:15.479Z,18.23
2023-04-08T12:37:44.071Z,11.53
2023-04-08T12:40:11.241Z,9.03
2023-04-08T12:42:38.290Z,11.63
2023-04-08T12:45:05.661Z,10.17
2023-04-08T12:47:34.173Z,12.33
2023-04-08T12:50:01.361Z,11.13
2023-04-08T12:52:28.444Z,12.80
2023-04-08T12:54:55.486Z,11.33
2023-04-08T12:57:22.612Z,13.50
2023-04-08T12:59:49.612Z,10.90
2023-04-08T13:02:16.761Z,10.30
2023-04-08T13:04:45.228Z,9.40
2023-04-08T13:07:12.293Z,9.57
2023-04-08T13:09:39.343Z,13.10
2023-04-08T13:12:06.373Z,11.93
2023-04-08T13:14:33.472Z,9.43
2023-04-08T13:17:00.501Z,10.90
2023-04-08T13:19:27.591Z,8.60
2023-04-08T13:21:55.992Z,11.27
2023-04-08T13:24:23.050Z,8.47
2023-04-08T13:26:50.106Z,8.87
2023-04-08T13:29:17.159Z,10.67
2023-04-08T13:31:44.339Z,8.73
2023-04-08T13:34:11.414Z,10.03
2023-04-08T13:36:38.498Z,9.73
2023-04-08T13:39:06.888Z,11.73
2023-04-08T13:41:33.962Z,9.27
2023-04-08T13:44:01.087Z,10.80
2023-04-08T13:46:28.247Z,13.13
2023-04-08T13:48:55.337Z,10.07
2023-04-08T13:51:22.442Z,9.33
2023-04-08T13:53:49.554Z,10.03
2023-04-08T13:56:17.896Z,13.23
2023-04-08T13:58:49.686Z,11.60
2023-04-08T14:01:19.613Z,11.97
2023-04-08T14:03:46.791Z,12.27
2023-04-08T14:06:13.874Z,12.87
2023-04-08T14:08:40.993Z,15.83
2023-04-08T14:11:08.189Z,13.27
2023-04-08T14:13:36.622Z,12.33
2023-04-08T14:16:03.694Z,12.57
2023-04-08T14:18:30.891Z,12.30
2023-04-08T14:20:57.912Z,14.97
2023-04-08T14:23:24.970Z,14.83
2023-04-08T14:25:51.996Z,17.10
2023-04-08T14:28:19.041Z,14.50
2023-04-08T14:30:47.744Z,16.13
2023-04-08T14:33:14.913Z,15.50
2023-04-08T14:35:42.058Z,14.63
2023-04-08T14:38:09.239Z,18.20
2023-04-08T14:40:37.770Z,16.87
2023-04-08T14:43:05.091Z,14.90
2023-04-08T14:45:32.194Z,15.77
2023-04-08T14:48:00.670Z,16.57
2023-04-08T14:50:27.723Z,15.33
2023-04-08T14:52:54.815Z,16.33
2023-04-08T14:55:21.985Z,19.40
2023-04-08T14:57:49.242Z,15.37
2023-04-08T15:00:16.546Z,14.83
2023-04-08T15:02:43.703Z,16.97
2023-04-08T15:05:12.323Z,18.53
2023-04-08T15:07:39.374Z,16.13
2023-04-08T15:10:06.992Z,18.23
2023-04-08T15:12:34.029Z,16.40
2023-04-08T15:15:01.108Z,17.77
2023-04-08T15:17:28.274Z,16.53
2023-04-08T15:19:55.407Z,15.40
2023-04-08T15:22:23.792Z,14.50
2023-04-08T15:24:50.823Z,17.10
2023-04-08T15:27:17.841Z,13.90
2023-04-08T15:29:44.865Z,17.37
2023-04-08T15:32:11.975Z,20.53
2023-04-08T15:34:39.024Z,15.83
2023-04-08T15:37:06.141Z,14.83
2023-04-08T15:39:34.597Z,15.80
2023-04-08T15:42:01.730Z,16.37
2023-04-08T15:44:31.069Z,16.30
2023-04-08T15:46:58.184Z,16.50
2023-04-08T15:49:25.259Z,20.93
2023-04-08T15:51:52.401Z,18.17
2023-04-08T15:54:19.626Z,21.07
2023-04-08T15:56:48.056Z,21.03
2023-04-08T15:59:15.220Z,25.60
2023-04-08T16:01:43.506Z,24.20
2023-04-08T16:04:10.881Z,27.87
2023-04-08T16:06:37.957Z,26.00
2023-04-08T16:09:04.991Z,24.90
2023-04-08T16:11:33.793Z,20.77
2023-04-08T16:14:02.210Z,20.50
2023-04-08T16:16:29.351Z,18.80
2023-04-08T16:18:56.419Z,21.63
2023-04-08T16:21:23.654Z,25.90
2023-04-08T16:23:50.973Z,28.37
2023-04-08T16:26:18.118Z,24.67
2023-04-08T16:28:45.136Z,25.77
2023-04-08T16:31:13.532Z,28.13
2023-04-08T16:33:40.614Z,30.93
2023-04-08T16:36:07.791Z,30.40
2023-04-08T16:38:34.952Z,28.50
2023-04-08T16:41:02.184Z,29.17
2023-04-08T16:43:29.274Z,24.60
2023-04-08T16:45:56.488Z,21.43
2023-04-08T16:48:24.918Z,23.50
2023-04-08T16:50:51.972Z,25.17
2023-04-08T16:53:19.060Z,27.73
2023-04-08T16:55:46.119Z,24.90
2023-04-08T16:58:13.157Z,25.67
2023-04-08T17:00:40.264Z,26.03
2023-04-08T17:03:07.424Z,21.47
2023-04-08T17:05:35.968Z,20.07
2023-04-08T17:08:03.581Z,16.80
2023-04-08T17:10:30.612Z,17.97
2023-04-08T17:12:58.004Z,19.07
2023-04-08T17:15:25.282Z,17.37
2023-04-08T17:17:52.354Z,16.57
2023-04-08T17:20:19.652Z,18.77
2023-04-08T17:22:48.128Z,17.70
2023-04-08T17:25:15.255Z,17.23
2023-04-08T17:27:42.292Z,16.73
2023-04-08T17:30:11.411Z,18.40
2023-04-08T17:32:38.773Z,18.00
2023-04-08T17:35:06.023Z,18.83
2023-04-08T17:37:33.071Z,18.93
2023-04-08T17:40:01.674Z,19.60
2023-04-08T17:42:28.816Z,20.00
2023-04-08T17:44:55.856Z,21.13
2023-04-08T17:47:22.991Z,19.60
2023-04-08T17:49:50.072Z,21.40
2023-04-08T17:52:17.201Z,22.60
2023-04-08T17:54:44.283Z,23.57
2023-04-08T17:57:12.779Z,24.73
2023-04-08T17:59:39.801Z,19.50
2023-04-08T18:02:07.107Z,20.07
2023-04-08T18:04:34.238Z,27.30
2023-04-08T18:07:01.293Z,23.40
2023-04-08T18:09:28.332Z,27.37
2023-04-08T18:11:55.428Z,21.43
2023-04-08T18:14:23.861Z,23.17
2023-04-08T18:16:51.025Z,33.03
2023-04-08T18:19:18.021Z,25.50
2023-04-08T18:21:45.121Z,28.40
2023-04-08T18:24:12.317Z,27.20
2023-04-08T18:26:39.445Z,25.43
2023-04-08T18:29:06.574Z,28.60
2023-04-08T18:31:35.049Z,26.10
2023-04-08T18:34:02.152Z,23.00
2023-04-08T18:36:29.415Z,30.13
2023-04-08T18:38:56.534Z,27.63
2023-04-08T18:41:23.618Z,29.60
2023-04-08T18:43:50.911Z,33.83
2023-04-08T18:46:18.160Z,31.83
2023-04-08T18:48:46.949Z,29.80
2023-04-08T18:51:14.080Z,29.07
2023-04-08T18:53:41.195Z,30.23
2023-04-08T18:56:14.309Z,29.00
2023-04-08T18:58:41.431Z,32.07
2023-04-08T19:01:08.491Z,30.80
2023-04-08T19:03:35.841Z,34.83
2023-04-08T19:06:06.382Z,33.87
2023-04-08T19:08:33.527Z,30.27
2023-04-08T19:11:00.649Z,31.17
2023-04-08T19:13:27.705Z,32.30
2023-04-08T19:15:54.838Z,34.97
2023-04-08T19:18:22.010Z,35.80
2023-04-08T19:20:49.062Z,33.33
2023-04-08T19:23:17.568Z,34.10
2023-04-08T19:25:44.760Z,37.53
2023-04-08T19:28:11.768Z,32.37
2023-04-08T19:30:39.048Z,40.47
2023-04-08T19:33:06.363Z,40.00
2023-04-08T19:35:33.456Z,37.83
2023-04-08T19:38:00.536Z,42.00
2023-04-08T19:40:28.943Z,43.40
2023-04-08T19:42:56.081Z,37.13
2023-04-08T19:45:23.160Z,42.70
2023-04-08T19:47:50.260Z,41.93
2023-04-08T19:50:17.336Z,42.00
2023-04-08T19:52:44.391Z,41.93
2023-04-08T19:55:11.497Z,40.07
2023-04-08T19:57:39.927Z,41.33
2023-04-08T20:00:07.711Z,40.23
2023-04-08T20:02:34.937Z,42.37
2023-04-08T20:05:02.118Z,43.93
2023-04-08T20:07:29.286Z,44.53
2023-04-08T20:09:56.311Z,38.43
2023-04-08T20:12:23.367Z,39.10
2023-04-08T20:14:51.761Z,46.87
2023-04-08T20:17:18.794Z,44.50
2023-04-08T20:19:45.899Z,49.93
2023-04-08T20:22:12.975Z,54.60
2023-04-08T20:24:40.047Z,45.27
2023-04-08T20:27:07.075Z,42.13
2023-04-08T20:29:34.147Z,44.77
2023-04-08T20:32:02.591Z,42.03
2023-04-08T20:34:29.641Z,42.10
2023-04-08T20:36:56.706Z,47.50
2023-04-08T20:39:23.747Z,43.93
2023-04-08T20:41:50.836Z,39.73
2023-04-08T20:44:17.871Z,47.53
2023-04-08T20:46:44.954Z,47.47
2023-04-08T20:49:13.735Z,39.87
2023-04-08T20:51:40.799Z,52.23
2023-04-08T20:54:07.859Z,47.83
2023-04-08T20:56:34.869Z,48.20
2023-04-08T20:59:01.939Z,51.07
2023-04-08T21:01:29.129Z,50.97
2023-04-08T21:03:56.270Z,44.73
2023-04-08T21:06:24.682Z,49.33
2023-04-08T21:08:52.040Z,44.03
2023-04-08T21:11:19.273Z,51.90
2023-04-08T21:13:48.896Z,53.47
2023-04-08T21:16:16.487Z,52.73
2023-04-08T21:18:43.591Z,49.80
2023-04-08T21:21:10.818Z,52.47
2023-04-08T21:23:39.206Z,46.10
2023-04-08T21:26:10.541Z,52.40
2023-04-08T21:28:37.589Z,49.87
2023-04-08T21:31:08.063Z,47.97
2023-04-08T21:33:35.152Z,43.10
2023-04-08T21:36:02.340Z,47.93
2023-04-08T21:38:29.510Z,47.20
2023-04-08T21:40:57.864Z,52.40
2023-04-08T21:43:24.925Z,46.73
2023-04-08T21:45:52.030Z,50.20
2023-04-08T21:48:19.089Z,48.33
2023-04-08T21:50:46.187Z,43.73
2023-04-08T21:53:13.233Z,45.13
2023-04-08T21:55:40.323Z,46.17
2023-04-08T21:58:08.721Z,38.10
2023-04-08T22:00:35.789Z,43.87
2023-04-08T22:03:03.023Z,40.47
2023-04-08T22:05:31.885Z,44.43
2023-04-08T22:07:58.936Z,47.00
2023-04-08T22:10:26.025Z,43.50
2023-04-08T22:12:53.169Z,45.50
2023-04-08T22:15:21.755Z,46.47
2023-04-08T22:17:49.079Z,42.40
2023-04-08T22:20:16.212Z,43.60
2023-04-08T22:22:43.299Z,47.43
2023-04-08T22:25:10.694Z,47.43
2023-04-08T22:27:37.757Z,45.33
2023-04-08T22:30:05.290Z,47.00
2023-04-08T22:32:33.814Z,44.47
2023-04-08T22:35:00.924Z,49.43
2023-04-08T22:37:27.948Z,46.77
2023-04-08T22:39:55.027Z,45.43
2023-04-08T22:42:22.072Z,39.17
2023-04-08T22:44:49.124Z,48.63
2023-04-08T22:47:16.252Z,45.33
2023-04-08T22:49:44.832Z,39.33
2023-04-08T22:52:11.870Z,49.80
2023-04-08T22:54:38.952Z,49.07
2023-04-08T22:57:06.087Z,46.27
2023-04-08T22:59:33.178Z,47.73
2023-04-08T23:02:00.384Z,50.07
2023-04-08T23:04:27.557Z,55.93
2023-04-08T23:06:55.979Z,49.23
2023-04-08T23:09:23.048Z,49.00
2023-04-08T23:11:50.122Z,48.87
2023-04-08T23:14:17.176Z,54.80
2023-04-08T23:16:44.196Z,56.80
2023-04-08T23:19:11.250Z,54.50
2023-04-08T23:21:38.371Z,53.57
2023-04-08T23:24:06.963Z,51.40
2023-04-08T23:26:34.177Z,54.10
2023-04-08T23:29:01.241Z,55.00
2023-04-08T23:31:28.294Z,55.83
2023-04-08T23:33:55.403Z,59.30
2023-04-08T23:36:22.493Z,64.20
2023-04-08T23:38:50.358Z,55.67
2023-04-08T23:41:18.970Z,56.27
2023-04-08T23:43:46.785Z,56.60
2023-04-08T23:46:14.020Z,55.43
2023-04-08T23:48:41.147Z,51.97
2023-04-08T23:51:08.221Z,58.17
2023-04-08T23:53:35.279Z,52.70
2023-04-08T23:56:05.838Z,54.23
2023-04-08T23:58:34.364Z,53.77
